Time;durP1;ratioP1;P1;durP2;ratioP2;P2;SDS_P1;SDS_P2;PMS_P1;PMS_P2;Temp;Humidity;BMP_temperature;BMP_pressure;BME280_temperature;BME280_humidity;BME280_pressure;Samples;Min_cycle;Max_cycle;Signal;HPM_P1;HPM_P2
2022/10/03 00:02:27;;;;;;;24.42;4.47;;;10.10;99.90;;;;;;5000140;28;20013;-66
2022/10/03 00:05:04;;;;;;;20.10;4.03;;;10.20;99.90;;;;;;4999762;28;20036;-66
2022/10/03 00:07:41;;;;;;;15.88;4.55;;;10.30;99.90;;;;;;5008300;28;20117;-66
2022/10/03 00:10:19;;;;;;;26.00;6.45;;;10.40;99.90;;;;;;5000531;28;20112;-66
2022/10/03 00:13:26;;;;;;;19.65;3.90;;;10.50;99.90;;;;;;4996966;28;20037;-66
2022/10/03 00:16:11;;;;;;;22.05;5.55;;;10.50;99.90;;;;;;4998161;28;20030;-66
2022/10/03 00:18:55;;;;;;;23.85;5.45;;;10.60;99.90;;;;;;5009298;28;20037;-66
2022/10/03 00:21:41;;;;;;;30.90;4.75;;;10.60;99.90;;;;;;5001036;28;20026;-65
2022/10/03 00:24:22;;;;;;;27.83;4.72;;;10.60;99.90;;;;;;5004001;28;20081;-66
2022/10/03 00:26:54;;;;;;;22.33;4.53;;;10.60;99.90;;;;;;5004731;28;20030;-66
2022/10/03 00:29:28;;;;;;;24.30;4.97;;;10.60;99.90;;;;;;5001051;28;20041;-66
2022/10/03 00:32:34;;;;;;;29.88;4.57;;;10.70;99.90;;;;;;5003757;28;20068;-66
2022/10/03 00:35:31;;;;;;;21.27;4.43;;;10.70;99.90;;;;;;4996076;28;20038;-66
2022/10/03 00:38:10;;;;;;;15.65;4.10;;;10.70;99.90;;;;;;5008678;28;20026;-66
2022/10/03 00:40:55;;;;;;;32.10;4.53;;;10.70;99.90;;;;;;4996451;28;20023;-66
2022/10/03 00:44:01;;;;;;;24.90;4.55;;;10.80;99.90;;;;;;5004028;28;20439;-66
2022/10/03 00:46:48;;;;;;;18.63;5.03;;;10.80;99.90;;;;;;4995453;28;20041;-66
2022/10/03 00:49:37;;;;;;;23.35;4.18;;;10.80;99.90;;;;;;5001161;28;20023;-65
2022/10/03 00:52:15;;;;;;;22.58;4.63;;;10.90;99.90;;;;;;4986478;28;20471;-66
2022/10/03 00:54:54;;;;;;;22.65;4.00;;;10.90;99.90;;;;;;4999869;28;20034;-66
2022/10/03 00:57:49;;;;;;;20.60;4.22;;;10.80;99.90;;;;;;5000380;28;20030;-66
2022/10/03 01:00:25;;;;;;;18.77;4.60;;;10.80;99.90;;;;;;4998210;28;20033;-67
2022/10/03 01:02:51;;;;;;;23.88;3.63;;;10.70;99.90;;;;;;5001799;28;20507;-66
2022/10/03 01:05:48;;;;;;;22.90;4.15;;;10.60;99.90;;;;;;5001280;28;20033;-66
2022/10/03 01:08:25;;;;;;;22.08;4.50;;;10.60;99.90;;;;;;5000778;28;20493;-66
2022/10/03 01:11:12;;;;;;;23.05;5.25;;;10.50;99.90;;;;;;5002774;28;20495;-64
2022/10/03 01:14:01;;;;;;;25.05;4.75;;;10.50;99.90;;;;;;5004223;28;20036;-66
2022/10/03 01:16:45;;;;;;;22.08;3.92;;;10.40;99.90;;;;;;5005372;28;20382;-66
2022/10/03 01:19:59;;;;;;;23.08;4.00;;;10.20;99.90;;;;;;5004797;28;20126;-65
2022/10/03 01:22:52;;;;;;;27.55;4.22;;;10.30;99.90;;;;;;5007867;28;20022;-66
2022/10/03 01:25:31;;;;;;;25.08;3.67;;;10.30;99.90;;;;;;5003622;28;20037;-66
2022/10/03 01:31:12;;;;;;;26.05;4.57;;;10.20;99.90;;;;;;5005030;28;20400;-66
2022/10/03 01:34:13;;;;;;;20.48;4.05;;;10.20;99.90;;;;;;5000133;28;20037;-66
2022/10/03 01:37:00;;;;;;;23.52;3.92;;;10.00;99.90;;;;;;5004551;28;20079;-66
2022/10/03 01:39:36;;;;;;;27.30;4.03;;;10.00;99.90;;;;;;5011403;28;20054;-66
2022/10/03 01:42:18;;;;;;;24.80;5.05;;;9.90;99.90;;;;;;5003783;28;20458;-66
2022/10/03 01:44:54;;;;;;;23.05;4.70;;;10.00;99.90;;;;;;5002962;28;20100;-66
2022/10/03 01:47:33;;;;;;;24.75;4.97;;;10.00;99.90;;;;;;5008080;28;20121;-66
2022/10/03 01:50:26;;;;;;;16.85;4.07;;;10.00;99.90;;;;;;5005133;28;20038;-66
2022/10/03 01:52:57;;;;;;;16.77;4.22;;;9.90;99.90;;;;;;5002369;28;20053;-66
2022/10/03 01:55:35;;;;;;;9.98;4.13;;;9.90;99.90;;;;;;5004373;28;20077;-66
2022/10/03 01:58:09;;;;;;;28.80;4.68;;;9.80;99.90;;;;;;5003990;28;20056;-66
2022/10/03 02:00:55;;;;;;;26.20;4.57;;;9.70;99.90;;;;;;5001432;28;20519;-66
2022/10/03 02:03:25;;;;;;;28.77;4.43;;;9.70;99.90;;;;;;5006286;28;20137;-66
2022/10/03 02:06:12;;;;;;;23.25;4.65;;;9.60;99.90;;;;;;5002149;28;20034;-66
2022/10/03 02:08:46;;;;;;;26.70;4.80;;;9.60;99.90;;;;;;5004534;28;20026;-65
2022/10/03 02:11:27;;;;;;;19.10;3.83;;;9.60;99.90;;;;;;5000764;28;20111;-66
2022/10/03 02:14:04;;;;;;;24.52;4.38;;;9.60;99.90;;;;;;4996057;28;20037;-66
2022/10/03 02:16:35;;;;;;;14.32;4.18;;;9.60;99.90;;;;;;4998750;28;20034;-65
2022/10/03 02:19:22;;;;;;;24.92;4.82;;;9.60;99.90;;;;;;5004987;28;20037;-66
2022/10/03 02:21:51;;;;;;;31.00;6.22;;;9.60;99.90;;;;;;5001857;28;20384;-66
2022/10/03 02:24:35;;;;;;;24.08;6.15;;;9.80;99.90;;;;;;5008196;28;20026;-65
2022/10/03 02:27:15;;;;;;;31.15;7.03;;;9.80;99.90;;;;;;5004183;28;20716;-66
2022/10/03 02:29:50;;;;;;;21.92;6.85;;;9.90;99.90;;;;;;5000357;28;20100;-66
2022/10/03 02:32:31;;;;;;;17.15;5.47;;;9.80;99.90;;;;;;5004773;28;20096;-66
2022/10/03 02:35:06;;;;;;;25.35;5.63;;;10.00;99.90;;;;;;5007481;28;20040;-67
2022/10/03 02:37:45;;;;;;;27.83;7.30;;;10.00;99.90;;;;;;5000930;28;20028;-66
2022/10/03 02:40:55;;;;;;;26.50;7.65;;;10.00;99.90;;;;;;4999540;28;20069;-66
2022/10/03 02:43:56;;;;;;;38.55;7.32;;;10.10;99.90;;;;;;5004044;28;20049;-66
2022/10/03 02:46:59;;;;;;;29.70;7.60;;;10.10;99.90;;;;;;5006733;28;20079;-66
2022/10/03 02:49:25;;;;;;;37.70;7.22;;;10.20;99.90;;;;;;5001388;28;20092;-66
2022/10/03 02:52:03;;;;;;;24.80;7.00;;;10.20;99.90;;;;;;5001393;28;20495;-66
2022/10/03 02:55:04;;;;;;;25.60;7.10;;;10.20;99.90;;;;;;5005618;28;20243;-66
2022/10/03 02:58:13;;;;;;;24.25;7.20;;;10.20;99.90;;;;;;5008305;28;20030;-67
2022/10/03 03:01:12;;;;;;;28.42;7.28;;;10.10;99.90;;;;;;4952931;28;20054;-66
2022/10/03 03:03:59;;;;;;;20.70;5.70;;;10.10;99.90;;;;;;5000309;28;20105;-65
2022/10/03 03:07:00;;;;;;;14.65;6.25;;;10.00;99.90;;;;;;5003126;28;20850;-66
2022/10/03 03:09:44;;;;;;;19.90;5.88;;;10.00;99.90;;;;;;4996459;28;20032;-66
2022/10/03 03:12:44;;;;;;;23.25;6.30;;;10.00;99.90;;;;;;5002402;28;20033;-67
2022/10/03 03:15:28;;;;;;;22.90;6.45;;;9.90;99.90;;;;;;4999822;28;20022;-66
2022/10/03 03:18:14;;;;;;;20.20;5.43;;;9.90;99.90;;;;;;4998749;28;20030;-65
2022/10/03 03:20:51;;;;;;;22.67;5.75;;;9.90;99.90;;;;;;5005835;28;20264;-66
2022/10/03 03:23:49;;;;;;;21.98;6.03;;;9.90;99.90;;;;;;4997327;28;20023;-66
2022/10/03 03:26:41;;;;;;;18.50;6.13;;;9.80;99.90;;;;;;5006559;28;20019;-66
2022/10/03 03:29:12;;;;;;;18.70;6.80;;;9.70;99.90;;;;;;4995791;28;20080;-67
2022/10/03 03:31:48;;;;;;;22.35;6.35;;;9.60;99.90;;;;;;4999491;28;20025;-66
2022/10/03 03:34:32;;;;;;;16.58;5.68;;;9.50;99.90;;;;;;5004331;28;20112;-67
2022/10/03 03:37:09;;;;;;;21.90;6.63;;;9.40;99.90;;;;;;5000167;28;20026;-66
2022/10/03 03:40:08;;;;;;;26.83;5.88;;;9.50;99.90;;;;;;5005053;28;20052;-67
2022/10/03 03:43:04;;;;;;;27.77;5.68;;;9.30;99.90;;;;;;4994810;28;20089;-67
2022/10/03 03:45:51;;;;;;;24.08;5.88;;;9.30;99.90;;;;;;4999539;28;20059;-67
2022/10/03 03:48:31;;;;;;;19.85;5.90;;;9.30;99.90;;;;;;5006260;28;20030;-66
2022/10/03 03:51:10;;;;;;;19.98;5.75;;;9.30;99.90;;;;;;5004110;28;20388;-66
2022/10/03 03:54:15;;;;;;;22.63;6.40;;;9.30;99.90;;;;;;5004050;28;20025;-66
2022/10/03 03:57:02;;;;;;;24.17;5.75;;;9.20;99.90;;;;;;5000934;28;20050;-66
2022/10/03 04:00:03;;;;;;;17.38;6.65;;;9.20;99.90;;;;;;5005373;28;20023;-66
2022/10/03 04:02:56;;;;;;;17.38;6.30;;;9.20;99.90;;;;;;4986004;28;20039;-67
2022/10/03 04:05:56;;;;;;;18.00;5.63;;;9.20;99.90;;;;;;4998243;28;20022;-66
2022/10/03 04:08:59;;;;;;;14.52;5.40;;;9.20;99.90;;;;;;5000705;28;20609;-66
2022/10/03 04:11:48;;;;;;;28.50;6.55;;;9.20;99.90;;;;;;4996222;28;20034;-66
2022/10/03 04:14:28;;;;;;;18.77;6.32;;;9.10;99.90;;;;;;5001117;28;20671;-66
2022/10/03 04:20:31;;;;;;;14.73;5.90;;;8.90;99.90;;;;;;4993998;28;20064;-66
2022/10/03 04:23:18;;;;;;;22.23;6.28;;;9.00;99.90;;;;;;5002147;28;20026;-66
2022/10/03 04:26:06;;;;;;;16.00;5.50;;;8.80;99.90;;;;;;5001690;28;20104;-67
2022/10/03 04:28:42;;;;;;;16.02;6.15;;;8.90;99.90;;;;;;4998604;28;20033;-65
2022/10/03 04:31:30;;;;;;;25.65;6.20;;;8.80;99.90;;;;;;4997055;28;20032;-67
2022/10/03 04:34:14;;;;;;;20.23;5.97;;;8.80;99.90;;;;;;4997893;28;20062;-66
2022/10/03 04:37:04;;;;;;;23.58;5.90;;;8.80;99.90;;;;;;5002124;28;20030;-67
2022/10/03 04:39:35;;;;;;;18.58;5.85;;;8.80;99.90;;;;;;4999186;28;20108;-67
2022/10/03 04:42:25;;;;;;;21.60;5.70;;;8.70;99.90;;;;;;5003059;28;20049;-67
2022/10/03 04:45:06;;;;;;;16.90;5.55;;;8.70;99.90;;;;;;5000743;28;20034;-68
2022/10/03 04:47:47;;;;;;;22.83;5.78;;;8.70;99.90;;;;;;5011210;28;20028;-67
2022/10/03 04:50:30;;;;;;;15.18;5.10;;;8.60;99.90;;;;;;5001815;28;20022;-68
2022/10/03 04:53:32;;;;;;;24.70;6.07;;;8.60;99.90;;;;;;5026115;22;20057;-61
2022/10/03 04:56:30;;;;;;;29.80;6.43;;;8.60;99.90;;;;;;5008344;28;20029;-60
2022/10/03 04:59:20;;;;;;;25.15;5.93;;;8.50;99.90;;;;;;5007324;28;20046;-61
2022/10/03 05:01:51;;;;;;;18.23;5.68;;;8.50;99.90;;;;;;5011643;28;20034;-59
2022/10/03 05:04:43;;;;;;;19.23;6.50;;;8.60;99.90;;;;;;5016787;28;20464;-60
2022/10/03 05:07:30;;;;;;;22.08;6.45;;;8.50;99.90;;;;;;5010946;28;20460;-60
2022/10/03 05:10:04;;;;;;;22.65;6.50;;;8.60;99.90;;;;;;5003967;28;20036;-61
2022/10/03 05:12:48;;;;;;;17.05;5.57;;;8.50;99.90;;;;;;5008688;28;20042;-61
2022/10/03 05:15:28;;;;;;;25.98;6.28;;;8.40;99.90;;;;;;5007955;28;20029;-59
2022/10/03 05:18:12;;;;;;;16.58;5.90;;;8.30;99.90;;;;;;5010721;28;20033;-62
2022/10/03 05:20:57;;;;;;;16.55;6.25;;;8.40;99.90;;;;;;5009588;28;20034;-60
2022/10/03 05:23:30;;;;;;;;;;;8.40;99.90;;;;;;5010459;28;20021;-60
2022/10/03 05:26:27;;;;;;;19.90;6.75;;;8.40;99.90;;;;;;5009808;28;19968;-61
2022/10/03 05:29:17;;;;;;;20.30;5.60;;;8.40;99.90;;;;;;5008158;28;20103;-59
2022/10/03 05:31:55;;;;;;;13.30;5.72;;;8.30;99.90;;;;;;5010285;28;20113;-61
2022/10/03 05:34:59;;;;;;;15.10;5.32;;;8.40;99.90;;;;;;5012197;28;20022;-60
2022/10/03 05:37:46;;;;;;;14.40;5.35;;;8.40;99.90;;;;;;5009532;28;20458;-61
2022/10/03 05:40:28;;;;;;;17.92;5.45;;;8.50;99.90;;;;;;5008061;28;20018;-60
2022/10/03 05:43:01;;;;;;;19.50;5.63;;;8.60;99.90;;;;;;5003378;28;20021;-61
2022/10/03 05:46:05;;;;;;;11.98;5.43;;;8.60;99.90;;;;;;5011945;28;20018;-60
2022/10/03 05:48:36;;;;;;;13.82;4.57;;;8.60;99.90;;;;;;5008824;28;20079;-59
2022/10/03 05:51:35;;;;;;;12.77;5.25;;;8.50;99.90;;;;;;5008656;28;20412;-61
2022/10/03 05:54:06;;;;;;;13.60;5.60;;;8.50;99.90;;;;;;5009141;28;20458;-60
2022/10/03 05:57:01;;;;;;;17.50;6.28;;;8.50;99.90;;;;;;5010300;28;20075;-60
2022/10/03 06:00:01;;;;;;;16.80;5.38;;;8.50;99.90;;;;;;5009217;28;20037;-61
2022/10/03 06:02:33;;;;;;;19.23;5.70;;;8.50;99.90;;;;;;4997559;28;20072;-66
2022/10/03 06:05:11;;;;;;;15.45;5.38;;;8.40;99.90;;;;;;5009704;28;20050;-61
2022/10/03 06:07:56;;;;;;;13.25;5.10;;;8.40;99.90;;;;;;5012290;28;20033;-62
2022/10/03 06:10:37;;;;;;;21.58;5.80;;;8.30;99.90;;;;;;5008719;28;20080;-62
2022/10/03 06:13:34;;;;;;;19.70;5.30;;;8.30;99.90;;;;;;5010336;28;20512;-62
2022/10/03 06:16:29;;;;;;;11.00;5.65;;;8.20;99.90;;;;;;5010200;28;20030;-63
2022/10/03 06:19:34;;;;;;;23.50;6.53;;;8.30;99.90;;;;;;5004775;28;20048;-63
2022/10/03 06:22:20;;;;;;;18.70;6.45;;;8.30;99.90;;;;;;5013119;28;20137;-62
2022/10/03 06:25:05;;;;;;;15.57;5.45;;;8.40;99.90;;;;;;5026443;28;20036;-60
2022/10/03 06:27:36;;;;;;;18.73;5.22;;;8.50;99.90;;;;;;5011539;28;20026;-60
2022/10/03 06:30:22;;;;;;;18.98;6.65;;;8.50;99.90;;;;;;5007209;28;20034;-61
2022/10/03 06:33:00;;;;;;;15.52;6.03;;;8.60;99.90;;;;;;5008319;28;20084;-61
2022/10/03 06:36:08;;;;;;;17.25;5.25;;;8.70;99.90;;;;;;5021422;28;20396;-58
2022/10/03 06:39:01;;;;;;;14.40;5.30;;;8.80;99.90;;;;;;5009947;28;20018;-63
2022/10/03 06:41:47;;;;;;;16.38;6.80;;;8.80;99.90;;;;;;5009978;28;20069;-61
2022/10/03 06:44:26;;;;;;;14.25;5.10;;;9.00;99.90;;;;;;5006930;28;20034;-61
2022/10/03 06:47:16;;;;;;;15.73;5.72;;;9.00;99.90;;;;;;5010550;28;20083;-62
2022/10/03 06:50:10;;;;;;;15.23;5.10;;;9.10;99.90;;;;;;5015631;28;20021;-63
2022/10/03 06:53:12;;;;;;;20.20;5.90;;;9.20;99.90;;;;;;5004910;28;20037;-62
2022/10/03 06:56:01;;;;;;;12.57;5.30;;;9.30;99.90;;;;;;5003558;28;20040;-60
2022/10/03 06:59:06;;;;;;;15.68;5.28;;;9.40;99.90;;;;;;5006186;28;20065;-60
2022/10/03 07:01:58;;;;;;;17.17;6.20;;;9.40;99.90;;;;;;5008062;28;20117;-62
2022/10/03 07:05:03;;;;;;;12.75;5.45;;;9.50;99.90;;;;;;5015301;28;20400;-62
2022/10/03 07:07:51;;;;;;;21.75;5.47;;;9.50;99.90;;;;;;5007453;28;20030;-62
2022/10/03 07:10:43;;;;;;;16.70;6.57;;;9.50;99.90;;;;;;5010881;28;20030;-60
2022/10/03 07:13:59;;;;;;;21.52;7.30;;;9.60;99.90;;;;;;5000616;28;20045;-62
2022/10/03 07:16:27;;;;;;;;;;;9.70;99.90;;;;;;4943903;29;20039;-60
2022/10/03 07:19:25;;;;;;;31.85;7.45;;;9.80;99.90;;;;;;5000630;28;19960;-61
2022/10/03 07:22:28;;;;;;;27.20;9.38;;;9.90;99.90;;;;;;5008567;28;20021;-60
2022/10/03 07:25:28;;;;;;;20.98;8.57;;;10.10;99.90;;;;;;5015517;28;20026;-61
2022/10/03 07:28:07;;;;;;;38.50;12.57;;;10.20;99.90;;;;;;5006179;28;20052;-61
2022/10/03 07:30:56;;;;;;;36.58;12.32;;;10.40;99.90;;;;;;5007534;28;20817;-62
2022/10/03 07:33:44;;;;;;;37.15;11.82;;;10.60;99.90;;;;;;5005464;28;20076;-59
2022/10/03 07:39:41;;;;;;;38.63;12.35;;;10.90;99.90;;;;;;5008701;28;20084;-60
2022/10/03 07:42:52;;;;;;;30.35;12.00;;;11.00;99.90;;;;;;5016962;28;20041;-61
2022/10/03 07:45:33;;;;;;;32.45;10.57;;;11.20;99.90;;;;;;5006404;28;20064;-59
2022/10/03 07:48:14;;;;;;;44.78;12.52;;;11.20;99.90;;;;;;5006960;28;20030;-60
2022/10/03 07:51:11;;;;;;;43.65;11.80;;;11.30;99.90;;;;;;5003764;28;20068;-60
2022/10/03 07:54:01;;;;;;;42.92;10.48;;;11.50;99.90;;;;;;5010103;28;20055;-60
2022/10/03 07:56:59;;;;;;;39.15;10.93;;;11.60;99.90;;;;;;5004124;28;20022;-61
2022/10/03 07:59:28;;;;;;;44.70;10.73;;;11.70;99.90;;;;;;4949559;28;20050;-60
2022/10/03 08:02:12;;;;;;;26.05;9.27;;;11.80;99.90;;;;;;5009974;28;20022;-62
2022/10/03 08:04:57;;;;;;;;;;;11.90;99.90;;;;;;5009117;28;20435;-61
2022/10/03 08:07:42;;;;;;;33.63;12.40;;;12.00;99.90;;;;;;5009751;28;20441;-60
2022/10/03 08:10:36;;;;;;;35.05;9.68;;;12.10;99.90;;;;;;5006126;28;20026;-59
2022/10/03 08:13:34;;;;;;;35.72;9.55;;;12.20;99.90;;;;;;5003915;28;20030;-62
2022/10/03 08:16:21;;;;;;;36.25;8.45;;;12.30;99.90;;;;;;5007999;28;20034;-62
2022/10/03 08:19:06;;;;;;;26.45;8.30;;;12.50;99.90;;;;;;5007290;28;20061;-59
2022/10/03 08:21:55;;;;;;;35.67;8.38;;;12.50;99.90;;;;;;5009804;28;20033;-59
2022/10/03 08:24:23;;;;;;;26.35;7.43;;;12.60;99.90;;;;;;5008005;28;20043;-60
2022/10/03 08:27:18;;;;;;;26.17;7.45;;;12.70;99.90;;;;;;5008939;28;20103;-61
2022/10/03 08:30:14;;;;;;;34.17;8.25;;;12.80;99.90;;;;;;4952747;28;20497;-63
2022/10/03 08:32:54;;;;;;;24.80;8.18;;;12.90;99.90;;;;;;5007136;28;20026;-61
2022/10/03 08:35:52;;;;;;;27.25;6.85;;;13.00;99.90;;;;;;5008946;28;20026;-60
2022/10/03 08:38:46;;;;;;;22.23;7.75;;;13.00;99.90;;;;;;5004856;28;20034;-61
2022/10/03 08:41:30;;;;;;;21.17;6.75;;;13.20;99.90;;;;;;5007908;28;20018;-59
2022/10/03 08:44:41;;;;;;;31.17;7.40;;;13.20;99.90;;;;;;5008792;28;20057;-62
2022/10/03 08:47:10;;;;;;;26.48;7.20;;;13.30;99.90;;;;;;5015945;28;20680;-63
2022/10/03 08:50:13;;;;;;;21.88;6.68;;;13.40;99.90;;;;;;5001306;28;20491;-60
2022/10/03 08:52:59;;;;;;;24.67;6.57;;;13.50;99.90;;;;;;5003430;28;20124;-63
2022/10/03 08:55:45;;;;;;;20.50;5.85;;;13.60;99.90;;;;;;5007251;28;20449;-63
2022/10/03 08:58:16;;;;;;;19.77;6.07;;;13.70;99.90;;;;;;5009472;28;20053;-63
2022/10/03 09:00:58;;;;;;;24.83;6.07;;;13.80;99.90;;;;;;5003309;28;20491;-62
2022/10/03 09:03:42;;;;;;;27.15;6.25;;;13.90;99.90;;;;;;5011377;28;20044;-62
2022/10/03 09:06:23;;;;;;;30.67;7.57;;;14.00;99.90;;;;;;5005151;28;20447;-62
2022/10/03 09:09:26;;;;;;;16.80;5.68;;;14.00;99.90;;;;;;5000191;28;20037;-62
2022/10/03 09:11:53;;;;;;;22.15;5.28;;;14.30;99.90;;;;;;5004967;28;20042;-61
2022/10/03 09:14:58;;;;;;;30.40;6.13;;;14.10;99.90;;;;;;5012477;28;20092;-63
2022/10/03 09:18:04;;;;;;;27.95;5.88;;;14.30;99.90;;;;;;4984742;28;20092;-61
2022/10/03 09:21:05;;;;;;;22.40;5.25;;;14.50;99.90;;;;;;5006816;28;20049;-62
2022/10/03 09:24:22;;;;;;;20.13;4.93;;;14.60;99.90;;;;;;5012532;28;20145;-63
2022/10/03 09:27:06;;;;;;;23.02;4.32;;;14.60;99.90;;;;;;4981540;28;20038;-62
2022/10/03 09:30:02;;;;;;;28.67;4.95;;;14.60;99.90;;;;;;5006267;28;20753;-62
2022/10/03 09:32:56;;;;;;;23.25;3.40;;;14.50;99.90;;;;;;5008717;28;20088;-63
2022/10/03 09:35:48;;;;;;;16.33;3.33;;;14.50;99.90;;;;;;5016335;28;20040;-62
2022/10/03 09:38:44;;;;;;;20.08;5.13;;;14.40;99.90;;;;;;5008103;28;20104;-63
2022/10/03 09:41:31;;;;;;;14.38;3.83;;;14.30;99.90;;;;;;5003434;28;20028;-63
2022/10/03 09:44:12;;;;;;;19.17;3.85;;;14.60;99.90;;;;;;5010345;28;20022;-59
2022/10/03 09:47:22;;;;;;;17.55;5.03;;;14.80;99.90;;;;;;5007929;28;20029;-62
2022/10/03 09:50:18;;;;;;;23.58;3.50;;;15.10;99.90;;;;;;5008189;28;20022;-62
2022/10/03 09:53:14;;;;;;;14.82;2.70;;;15.40;99.90;;;;;;5011920;28;20029;-63
2022/10/03 09:55:48;;;;;;;14.65;3.17;;;16.00;99.90;;;;;;5014682;28;20033;-62
2022/10/03 09:58:36;;;;;;;13.40;1.95;;;16.20;99.90;;;;;;5008575;28;20373;-63
2022/10/03 10:01:16;;;;;;;14.05;2.22;;;15.80;99.90;;;;;;5004109;28;20463;-63
2022/10/03 10:04:00;;;;;;;12.32;2.40;;;15.70;99.90;;;;;;5008083;28;20036;-63
2022/10/03 10:06:51;;;;;;;12.73;2.22;;;15.70;99.90;;;;;;5008822;28;20041;-63
2022/10/03 10:09:35;;;;;;;20.55;1.95;;;15.40;99.90;;;;;;5009297;28;20084;-63
2022/10/03 10:12:06;;;;;;;10.80;1.50;;;15.30;99.90;;;;;;5007926;28;20034;-63
2022/10/03 10:14:42;;;;;;;10.50;1.80;;;15.30;99.90;;;;;;5015099;28;20408;-62
2022/10/03 10:17:26;;;;;;;15.57;2.10;;;15.30;99.90;;;;;;5008097;28;20025;-64
2022/10/03 10:20:27;;;;;;;10.35;2.00;;;15.30;99.90;;;;;;5009300;28;20396;-64
2022/10/03 10:23:21;;;;;;;12.88;2.30;;;15.20;99.90;;;;;;5001155;28;20038;-62
2022/10/03 10:26:17;;;;;;;11.48;2.05;;;15.20;99.90;;;;;;5010772;28;20022;-59
2022/10/03 10:29:07;;;;;;;15.68;2.17;;;15.20;99.90;;;;;;5006282;28;20030;-61
2022/10/03 10:32:08;;;;;;;11.50;2.25;;;15.20;99.90;;;;;;5004307;28;20030;-61
2022/10/03 10:35:02;;;;;;;12.60;1.60;;;15.10;99.90;;;;;;5014412;28;20026;-62
2022/10/03 10:38:06;;;;;;;11.82;2.50;;;15.10;99.90;;;;;;5006100;28;20057;-62
2022/10/03 10:41:03;;;;;;;12.45;1.80;;;14.90;99.90;;;;;;5006490;28;20018;-62
2022/10/03 10:44:06;;;;;;;23.75;2.13;;;14.90;99.90;;;;;;5008521;28;20037;-63
2022/10/03 10:46:40;;;;;;;16.55;2.28;;;15.10;99.90;;;;;;5008146;28;20045;-65
2022/10/03 10:49:44;;;;;;;19.73;1.90;;;15.50;99.90;;;;;;5006152;28;20492;-63
2022/10/03 10:52:26;;;;;;;11.25;2.45;;;15.80;99.90;;;;;;5004475;28;20025;-60
2022/10/03 10:55:25;;;;;;;14.02;2.08;;;16.20;99.90;;;;;;5007207;28;20479;-63
2022/10/03 10:58:24;;;;;;;8.52;1.50;;;16.60;99.90;;;;;;5002838;28;20449;-63
2022/10/03 11:01:26;;;;;;;21.35;1.75;;;16.50;99.90;;;;;;4991893;28;20415;-62
2022/10/03 11:04:16;;;;;;;12.93;1.88;;;16.40;99.90;;;;;;5004221;28;20022;-61
2022/10/03 11:07:10;;;;;;;9.00;1.80;;;16.40;99.90;;;;;;5008444;28;20065;-61
2022/10/03 11:10:00;;;;;;;11.27;1.40;;;16.70;99.90;;;;;;5003563;28;20032;-63
2022/10/03 11:12:47;;;;;;;13.52;2.30;;;16.70;99.90;;;;;;5009582;28;20022;-61
2022/10/03 11:15:49;;;;;;;6.43;1.30;;;16.60;99.90;;;;;;5011464;28;20026;-62
2022/10/03 11:18:15;;;;;;;15.65;1.80;;;16.40;99.90;;;;;;5007198;28;20029;-63
2022/10/03 11:21:05;;;;;;;11.77;2.10;;;16.40;99.90;;;;;;5007505;28;20480;-65
2022/10/03 11:24:00;;;;;;;11.50;1.73;;;16.40;99.90;;;;;;5006015;28;20037;-63
2022/10/03 11:26:49;;;;;;;17.05;3.15;;;16.30;99.90;;;;;;5006816;28;20030;-63
2022/10/03 11:29:43;;;;;;;8.20;1.75;;;16.30;99.90;;;;;;5004795;28;20570;-62
2022/10/03 11:32:30;;;;;;;10.45;1.63;;;16.70;99.90;;;;;;5005502;28;20022;-63
2022/10/03 11:35:25;;;;;;;4.93;1.08;;;17.00;99.90;;;;;;5009452;28;20052;-63
2022/10/03 11:38:28;;;;;;;20.98;1.50;;;16.80;99.90;;;;;;5004856;28;20040;-62
2022/10/03 11:41:15;;;;;;;12.30;1.30;;;17.00;99.90;;;;;;5002271;28;20053;-64
2022/10/03 11:43:56;;;;;;;5.78;1.10;;;17.10;99.90;;;;;;5004958;28;20033;-64
2022/10/03 11:46:29;;;;;;;11.82;1.25;;;17.70;99.90;;;;;;5006115;28;20502;-63
2022/10/03 11:48:55;;;;;;;10.95;1.30;;;17.60;99.90;;;;;;5006741;28;20113;-62
2022/10/03 11:51:42;;;;;;;13.77;1.77;;;17.30;99.90;;;;;;5007956;28;20444;-64
2022/10/03 11:54:42;;;;;;;14.55;2.05;;;17.10;99.90;;;;;;5015509;28;20124;-62
2022/10/03 11:57:15;;;;;;;4.75;1.27;;;16.80;99.90;;;;;;4962195;28;20042;-57
2022/10/03 11:59:57;;;;;;;11.45;1.52;;;16.70;99.90;;;;;;5022743;22;20042;-55
2022/10/03 12:02:27;;;;;;;10.40;1.77;;;16.80;99.90;;;;;;5011940;28;20026;-58
2022/10/03 12:05:02;;;;;;;13.05;1.20;;;17.20;99.90;;;;;;5010205;28;20053;-57
2022/10/03 12:10:31;;;;;;;8.75;1.25;;;17.80;99.90;;;;;;5003759;28;20127;-58
2022/10/03 12:13:03;;;;;;;7.65;0.93;;;18.00;99.90;;;;;;5004749;28;20033;-58
2022/10/03 12:15:37;;;;;;;10.82;1.65;;;18.30;99.90;;;;;;5007496;28;20107;-59
2022/10/03 12:18:10;;;;;;;6.60;1.17;;;18.50;99.90;;;;;;5006502;28;20021;-57
2022/10/03 12:20:57;;;;;;;9.35;1.45;;;17.90;99.90;;;;;;5005387;28;20026;-58
2022/10/03 12:23:56;;;;;;;5.38;1.15;;;17.60;99.90;;;;;;5011627;28;20113;-58
2022/10/03 12:26:51;;;;;;;6.85;1.08;;;17.60;99.90;;;;;;5008197;28;20439;-54
2022/10/03 12:29:20;;;;;;;11.30;1.90;;;17.40;99.90;;;;;;5009592;28;20046;-55
2022/10/03 12:32:00;;;;;;;2.63;0.80;;;17.10;99.90;;;;;;5021985;28;20026;-56
2022/10/03 12:34:36;;;;;;;5.20;1.15;;;17.20;99.90;;;;;;5006232;28;20026;-54
2022/10/03 12:37:26;;;;;;;11.13;1.80;;;17.10;99.90;;;;;;5006510;28;20025;-56
2022/10/03 12:40:04;;;;;;;13.05;1.13;;;17.00;99.90;;;;;;5011867;28;20021;-57
2022/10/03 12:42:38;;;;;;;5.13;1.05;;;17.00;99.90;;;;;;5011636;28;20101;-57
2022/10/03 12:45:54;;;;;;;7.15;1.10;;;17.00;99.90;;;;;;5007819;28;20025;-58
2022/10/03 12:48:57;;;;;;;5.80;1.20;;;17.10;99.90;;;;;;4962997;28;20026;-55
2022/10/03 12:51:46;;;;;;;3.95;1.10;;;17.70;99.90;;;;;;5010199;28;20092;-54
2022/10/03 12:54:34;;;;;;;7.13;1.30;;;18.30;99.90;;;;;;5006332;28;20018;-59
2022/10/03 12:57:21;;;;;;;10.10;1.52;;;18.70;99.90;;;;;;5004078;28;20073;-57
2022/10/03 13:00:02;;;;;;;4.10;0.98;;;18.60;99.90;;;;;;5001877;28;20029;-56
2022/10/03 13:02:39;;;;;;;3.38;1.05;;;18.60;99.90;;;;;;5003726;28;20018;-55
2022/10/03 13:05:44;;;;;;;8.93;1.00;;;18.50;99.90;;;;;;5003167;28;20034;-57
2022/10/03 13:08:50;;;;;;;5.60;1.08;;;18.40;99.90;;;;;;5007795;28;20034;-56
2022/10/03 13:11:49;;;;;;;6.45;1.10;;;18.40;99.90;;;;;;5011301;28;20040;-55
2022/10/03 13:14:43;;;;;;;9.55;1.13;;;18.60;99.90;;;;;;5007478;28;20029;-54
2022/10/03 13:17:35;;;;;;;3.13;1.20;;;18.70;99.90;;;;;;5011937;28;20041;-55
2022/10/03 13:20:21;;;;;;;5.35;0.95;;;18.70;99.90;;;;;;5009391;28;20026;-56
2022/10/03 13:23:02;;;;;;;5.53;1.15;;;18.30;99.90;;;;;;5008924;28;20022;-57
2022/10/03 13:25:45;;;;;;;4.93;0.80;;;18.10;99.90;;;;;;5006527;28;20038;-54
2022/10/03 13:28:19;;;;;;;4.57;1.75;;;17.90;99.90;;;;;;5007956;28;20124;-57
2022/10/03 13:30:52;;;;;;;6.93;1.02;;;17.80;99.90;;;;;;5003792;28;20033;-58
2022/10/03 13:33:46;;;;;;;12.67;3.80;;;17.70;99.90;;;;;;5000402;28;20052;-58
2022/10/03 13:36:49;;;;;;;9.27;2.25;;;17.60;99.90;;;;;;4999785;28;20288;-59
2022/10/03 13:39:18;;;;;;;10.05;1.45;;;17.60;99.90;;;;;;5002727;28;20113;-59
2022/10/03 13:42:15;;;;;;;6.57;1.58;;;17.50;99.90;;;;;;5001519;28;20138;-58
2022/10/03 13:44:47;;;;;;;4.68;1.10;;;17.40;99.90;;;;;;5005601;28;20117;-56
2022/10/03 13:47:33;;;;;;;7.30;1.05;;;17.40;99.90;;;;;;5014305;28;20030;-58
2022/10/03 13:50:03;;;;;;;6.20;1.10;;;17.40;99.90;;;;;;4996393;28;20052;-59
2022/10/03 13:52:56;;;;;;;5.60;0.88;;;17.60;99.90;;;;;;5007716;28;20506;-58
2022/10/03 13:55:45;;;;;;;7.57;1.48;;;17.80;99.90;;;;;;5008971;28;20137;-59
2022/10/03 13:58:32;;;;;;;6.57;1.10;;;17.90;99.90;;;;;;5006618;28;20376;-63
2022/10/03 14:01:08;;;;;;;3.65;1.48;;;17.70;99.90;;;;;;5005487;28;20037;-60
2022/10/03 14:03:40;;;;;;;13.02;1.08;;;17.70;99.90;;;;;;5004793;28;20391;-59
2022/10/03 14:06:15;;;;;;;12.88;1.50;;;17.80;99.90;;;;;;5003693;28;20050;-60
2022/10/03 14:08:58;;;;;;;8.48;2.00;;;18.00;99.90;;;;;;5000374;28;20752;-61
2022/10/03 14:11:47;;;;;;;10.55;1.35;;;18.10;99.90;;;;;;5002261;28;20392;-59
2022/10/03 14:14:33;;;;;;;5.03;1.13;;;18.10;99.90;;;;;;4998421;28;20482;-60
2022/10/03 14:17:23;;;;;;;8.95;1.10;;;18.10;99.90;;;;;;5005393;28;20025;-59
2022/10/03 14:20:03;;;;;;;4.95;1.33;;;18.10;99.90;;;;;;4999475;28;20022;-57
2022/10/03 14:22:37;;;;;;;6.28;1.00;;;18.10;99.90;;;;;;5007439;28;20173;-59
2022/10/03 14:25:07;;;;;;;5.50;1.10;;;18.20;99.90;;;;;;5000137;28;20023;-58
2022/10/03 14:27:42;;;;;;;4.93;0.93;;;18.20;99.90;;;;;;4999121;28;20488;-58
2022/10/03 14:30:18;;;;;;;4.07;0.98;;;18.10;99.90;;;;;;5006063;28;20037;-60
2022/10/03 14:33:02;;;;;;;13.60;1.27;;;18.10;99.90;;;;;;5001870;28;20125;-59
2022/10/03 14:35:44;;;;;;;6.07;1.00;;;18.10;99.90;;;;;;5002012;28;20041;-60
2022/10/03 14:38:56;;;;;;;6.57;1.13;;;18.20;99.90;;;;;;5005113;28;20030;-59